ENT1944 LTFE-EPKT
Flight info
| Callsign | ENT1944 |
|---|---|
| Flight time | N/A |
| Altitude | 38000 |
| Route | AKBUK N128 IMR UN127 RIKSO DCT ATFIR DCT ERDOM DCT MEGIK DCT PERIT DCT RAZEC DCT LENOV |
| Aircraft | B38M/M-SDE1FGHILORVWXY/HB1 |
Departure
| Time | 2026-04-30 12:32 |
|---|---|
| Airport | Milas Bodrum International Airport (LTFE) |
Arrival
| Time | N/A |
|---|---|
| Airport | Katowice Wojciech Korfanty International Airport (EPKT) |
| Time | Latitude | Longitude | Altitude | Speed | Heading |
|---|---|---|---|---|---|
| 2026-04-30 12:24 | 37.24613 | 27.67471 | 33 ft | 0 kts | 14° |
| 2026-04-30 12:28 | 37.24601 | 27.67467 | 33 ft | 2 kts | 14° |
| 2026-04-30 12:28 | 37.24586 | 27.67462 | 33 ft | 2 kts | 14° |
| 2026-04-30 12:29 | 37.24570 | 27.67457 | 33 ft | 2 kts | 14° |
| 2026-04-30 12:29 | 37.24559 | 27.67447 | 33 ft | 0 kts | 105° |
| 2026-04-30 12:29 | 37.24558 | 27.67449 | 33 ft | 1 kts | 107° |
| 2026-04-30 12:30 | 37.24547 | 27.67492 | 33 ft | 8 kts | 107° |
| 2026-04-30 12:30 | 37.24527 | 27.67579 | 33 ft | 9 kts | 106° |
| 2026-04-30 12:30 | 37.24576 | 27.67631 | 33 ft | 12 kts | 18° |
| 2026-04-30 12:30 | 37.24651 | 27.67661 | 35 ft | 10 kts | 1° |
| 2026-04-30 12:31 | 37.24676 | 27.67629 | 35 ft | 1 kts | 288° |
| 2026-04-30 12:31 | 37.24681 | 27.67607 | 35 ft | 6 kts | 287° |
| 2026-04-30 12:31 | 37.24765 | 27.67249 | 33 ft | 86 kts | 287° |
| 2026-04-30 12:31 | 37.25012 | 27.66202 | 57 ft | 156 kts | 284° |
| 2026-04-30 12:32 | 37.25339 | 27.64836 | 631 ft | 172 kts | 285° |
| 2026-04-30 12:32 | 37.25698 | 27.63353 | 1361 ft | 182 kts | 283° |
| 2026-04-30 12:32 | 37.26009 | 27.61828 | 2396 ft | 181 kts | 283° |
| 2026-04-30 12:32 | 37.26336 | 27.60226 | 3159 ft | 198 kts | 283° |
| 2026-04-30 12:33 | 37.26698 | 27.58469 | 3784 ft | 220 kts | 285° |
| 2026-04-30 12:33 | 37.27470 | 27.56705 | 4348 ft | 247 kts | 316° |
| 2026-04-30 12:33 | 37.29001 | 27.55571 | 5067 ft | 267 kts | 341° |
| 2026-04-30 12:33 | 37.30777 | 27.54823 | 5994 ft | 274 kts | 341° |
| 2026-04-30 12:34 | 37.32568 | 27.54028 | 7173 ft | 273 kts | 340° |
| 2026-04-30 12:34 | 37.34380 | 27.53214 | 8168 ft | 279 kts | 339° |
| 2026-04-30 12:34 | 37.36219 | 27.52378 | 9192 ft | 283 kts | 339° |
| 2026-04-30 12:34 | 37.38087 | 27.51524 | 10164 ft | 287 kts | 338° |
| 2026-04-30 12:35 | 37.39995 | 27.50648 | 10873 ft | 300 kts | 338° |
| 2026-04-30 12:35 | 37.42023 | 27.49715 | 11374 ft | 319 kts | 338° |
| 2026-04-30 12:35 | 37.44171 | 27.48727 | 11799 ft | 339 kts | 338° |
| 2026-04-30 12:35 | 37.46454 | 27.47678 | 12190 ft | 358 kts | 338° |
| 2026-04-30 12:36 | 37.48846 | 27.46582 | 12556 ft | 375 kts | 338° |
| 2026-04-30 12:36 | 37.51307 | 27.45263 | 12862 ft | 391 kts | 333° |
| 2026-04-30 12:36 | 37.53819 | 27.43812 | 13273 ft | 402 kts | 334° |
| 2026-04-30 12:36 | 37.56375 | 27.42354 | 14002 ft | 404 kts | 334° |
| 2026-04-30 12:37 | 37.58918 | 27.40914 | 14581 ft | 408 kts | 334° |
| 2026-04-30 12:37 | 37.61518 | 27.39442 | 15197 ft | 410 kts | 334° |
| 2026-04-30 12:37 | 37.64148 | 27.37995 | 15754 ft | 414 kts | 334° |
| 2026-04-30 12:37 | 37.66798 | 27.36552 | 16325 ft | 417 kts | 334° |
| 2026-04-30 12:38 | 37.69473 | 27.35092 | 16877 ft | 420 kts | 334° |
| 2026-04-30 12:38 | 37.72163 | 27.33621 | 17425 ft | 422 kts | 334° |
| 2026-04-30 12:38 | 37.74870 | 27.32138 | 17953 ft | 425 kts | 334° |
| 2026-04-30 12:38 | 37.77600 | 27.30643 | 18456 ft | 429 kts | 334° |
| 2026-04-30 12:39 | 37.80313 | 27.29155 | 18926 ft | 431 kts | 334° |
| 2026-04-30 12:39 | 37.83077 | 27.27638 | 19411 ft | 434 kts | 334° |
| 2026-04-30 12:39 | 37.85891 | 27.26093 | 19887 ft | 436 kts | 334° |
| 2026-04-30 12:39 | 37.88646 | 27.24578 | 20333 ft | 439 kts | 334° |
| 2026-04-30 12:40 | 37.91454 | 27.23033 | 20774 ft | 442 kts | 334° |
| 2026-04-30 12:40 | 37.94287 | 27.21473 | 21231 ft | 444 kts | 334° |
| 2026-04-30 12:40 | 37.97130 | 27.19906 | 21657 ft | 447 kts | 334° |
| 2026-04-30 12:40 | 37.99985 | 27.18331 | 22097 ft | 450 kts | 333° |
| 2026-04-30 12:41 | 38.02866 | 27.16740 | 22523 ft | 453 kts | 334° |
| 2026-04-30 12:41 | 38.05763 | 27.15139 | 23020 ft | 454 kts | 333° |
| 2026-04-30 12:41 | 38.08671 | 27.13530 | 23441 ft | 458 kts | 333° |
| 2026-04-30 12:41 | 38.11596 | 27.11911 | 23812 ft | 461 kts | 333° |
| 2026-04-30 12:42 | 38.14539 | 27.10281 | 24248 ft | 462 kts | 333° |
| 2026-04-30 12:42 | 38.17492 | 27.08644 | 24660 ft | 464 kts | 333° |
| 2026-04-30 12:42 | 38.20461 | 27.06995 | 25072 ft | 466 kts | 333° |
| 2026-04-30 12:42 | 38.23438 | 27.05342 | 25488 ft | 468 kts | 333° |
| 2026-04-30 12:43 | 38.26427 | 27.03681 | 25922 ft | 469 kts | 333° |
| 2026-04-30 12:43 | 38.29414 | 27.02018 | 26464 ft | 466 kts | 333° |
| 2026-04-30 12:43 | 38.32195 | 26.99969 | 26991 ft | 459 kts | 319° |
| 2026-04-30 12:43 | 38.34615 | 26.97419 | 27575 ft | 456 kts | 317° |
| 2026-04-30 12:44 | 38.37040 | 26.94821 | 28099 ft | 455 kts | 317° |
| 2026-04-30 12:44 | 38.39445 | 26.92204 | 28664 ft | 453 kts | 317° |
| 2026-04-30 12:44 | 38.41828 | 26.89586 | 29227 ft | 451 kts | 316° |
| 2026-04-30 12:44 | 38.44193 | 26.86974 | 29777 ft | 449 kts | 316° |
| 2026-04-30 12:45 | 38.46552 | 26.84362 | 30257 ft | 448 kts | 316° |
| 2026-04-30 12:45 | 38.48903 | 26.81757 | 30697 ft | 447 kts | 316° |
| 2026-04-30 12:45 | 38.51243 | 26.79163 | 31157 ft | 445 kts | 316° |
| 2026-04-30 12:45 | 38.53579 | 26.76570 | 31595 ft | 443 kts | 316° |
| 2026-04-30 12:46 | 38.55906 | 26.73985 | 31982 ft | 443 kts | 316° |
| 2026-04-30 12:46 | 38.58225 | 26.71406 | 31996 ft | 441 kts | 316° |
| 2026-04-30 12:46 | 38.62846 | 26.66261 | 31988 ft | 440 kts | 316° |
| 2026-04-30 12:47 | 38.67463 | 26.61109 | 31994 ft | 440 kts | 316° |
| 2026-04-30 12:47 | 38.72313 | 26.56299 | 32012 ft | 442 kts | 319° |
| 2026-04-30 12:48 | 38.77160 | 26.51527 | 32013 ft | 442 kts | 319° |
| 2026-04-30 12:48 | 38.82019 | 26.46711 | 32027 ft | 441 kts | 319° |
| 2026-04-30 12:49 | 38.86878 | 26.41883 | 32035 ft | 441 kts | 319° |
| 2026-04-30 12:49 | 38.91734 | 26.37049 | 32040 ft | 441 kts | 319° |
| 2026-04-30 12:50 | 38.96579 | 26.32218 | 32037 ft | 441 kts | 319° |
| 2026-04-30 12:50 | 39.01425 | 26.27379 | 32025 ft | 441 kts | 319° |
| 2026-04-30 12:51 | 39.06267 | 26.22534 | 32037 ft | 440 kts | 319° |
| 2026-04-30 12:51 | 39.11104 | 26.17685 | 32020 ft | 440 kts | 318° |
| 2026-04-30 12:52 | 39.15935 | 26.12835 | 32004 ft | 440 kts | 318° |
| 2026-04-30 12:52 | 39.20727 | 26.08013 | 32013 ft | 440 kts | 318° |
| 2026-04-30 12:53 | 39.25577 | 26.03126 | 32012 ft | 439 kts | 318° |
| 2026-04-30 12:53 | 39.30362 | 25.98294 | 32013 ft | 439 kts | 318° |
| 2026-04-30 12:54 | 39.35172 | 25.93429 | 32015 ft | 439 kts | 318° |
| 2026-04-30 12:54 | 39.39981 | 25.88557 | 32014 ft | 439 kts | 318° |
| 2026-04-30 12:55 | 39.44782 | 25.83684 | 32021 ft | 438 kts | 318° |
| 2026-04-30 12:55 | 39.49576 | 25.78808 | 32018 ft | 438 kts | 318° |
| 2026-04-30 12:56 | 39.54376 | 25.73919 | 32383 ft | 438 kts | 318° |
| 2026-04-30 12:56 | 39.56775 | 25.71472 | 32818 ft | 437 kts | 318° |
| 2026-04-30 12:56 | 39.59163 | 25.69033 | 33251 ft | 436 kts | 318° |
| 2026-04-30 12:57 | 39.61515 | 25.66630 | 33667 ft | 435 kts | 318° |
| 2026-04-30 12:57 | 39.63886 | 25.64205 | 34076 ft | 434 kts | 317° |
| 2026-04-30 12:57 | 39.66256 | 25.61779 | 34427 ft | 433 kts | 317° |
| 2026-04-30 12:57 | 39.68615 | 25.59361 | 34776 ft | 432 kts | 317° |
| 2026-04-30 12:58 | 39.70974 | 25.56942 | 35134 ft | 431 kts | 317° |
| 2026-04-30 12:58 | 39.73331 | 25.54522 | 35481 ft | 430 kts | 317° |
| 2026-04-30 12:58 | 39.75678 | 25.52111 | 35827 ft | 429 kts | 317° |
| 2026-04-30 12:58 | 39.78020 | 25.49702 | 36153 ft | 428 kts | 317° |
| 2026-04-30 12:59 | 39.80358 | 25.47296 | 36466 ft | 428 kts | 317° |
| 2026-04-30 12:59 | 39.82687 | 25.44896 | 36776 ft | 427 kts | 317° |
| 2026-04-30 12:59 | 39.85011 | 25.42499 | 37095 ft | 426 kts | 317° |
| 2026-04-30 12:59 | 39.87336 | 25.40100 | 37385 ft | 425 kts | 317° |
| 2026-04-30 13:00 | 39.88872 | 25.38514 | 37572 ft | 424 kts | 317° |
| 2026-04-30 13:00 | 39.91936 | 25.35347 | 37950 ft | 424 kts | 317° |
| 2026-04-30 13:00 | 39.96547 | 25.30573 | 38031 ft | 422 kts | 317° |
| 2026-04-30 13:01 | 40.00366 | 25.26613 | 38024 ft | 421 kts | 317° |
| 2026-04-30 13:01 | 40.04958 | 25.21844 | 38026 ft | 421 kts | 317° |
| 2026-04-30 13:02 | 40.09545 | 25.17071 | 38030 ft | 421 kts | 317° |
| 2026-04-30 13:02 | 40.14892 | 25.11497 | 38032 ft | 421 kts | 317° |
| 2026-04-30 13:03 | 40.18694 | 25.07527 | 38039 ft | 420 kts | 317° |
| 2026-04-30 13:03 | 40.23260 | 25.02750 | 38043 ft | 420 kts | 316° |
| 2026-04-30 13:04 | 40.27823 | 24.97969 | 38046 ft | 420 kts | 316° |
| 2026-04-30 13:04 | 40.32377 | 24.93189 | 38050 ft | 419 kts | 316° |
| 2026-04-30 13:05 | 40.36901 | 24.88431 | 38048 ft | 419 kts | 316° |
| 2026-04-30 13:06 | 40.43706 | 24.81259 | 38058 ft | 418 kts | 316° |
| 2026-04-30 13:06 | 40.48249 | 24.76461 | 38049 ft | 418 kts | 316° |
| 2026-04-30 13:07 | 40.52780 | 24.71665 | 38054 ft | 418 kts | 316° |
| 2026-04-30 13:07 | 40.57307 | 24.66867 | 38051 ft | 417 kts | 316° |
| 2026-04-30 13:08 | 40.61826 | 24.62068 | 38055 ft | 417 kts | 316° |
| 2026-04-30 13:08 | 40.66335 | 24.57271 | 38046 ft | 417 kts | 316° |
| 2026-04-30 13:09 | 40.70850 | 24.52458 | 38041 ft | 417 kts | 316° |
| 2026-04-30 13:09 | 40.75322 | 24.47684 | 38049 ft | 416 kts | 316° |
| 2026-04-30 13:10 | 40.79825 | 24.42867 | 38048 ft | 416 kts | 316° |
| 2026-04-30 13:10 | 40.84323 | 24.38047 | 38046 ft | 416 kts | 316° |
| 2026-04-30 13:11 | 40.88815 | 24.33225 | 38051 ft | 416 kts | 316° |
| 2026-04-30 13:11 | 40.93309 | 24.28393 | 38064 ft | 416 kts | 315° |
| 2026-04-30 13:12 | 40.97793 | 24.23561 | 38052 ft | 415 kts | 315° |
| 2026-04-30 13:12 | 41.02271 | 24.18728 | 38051 ft | 415 kts | 315° |
| 2026-04-30 13:13 | 41.08978 | 24.11473 | 38047 ft | 414 kts | 315° |
| 2026-04-30 13:14 | 41.15637 | 24.04249 | 38046 ft | 414 kts | 315° |
| 2026-04-30 13:14 | 41.22329 | 23.96970 | 38054 ft | 414 kts | 315° |
| 2026-04-30 13:15 | 41.29006 | 23.89689 | 38043 ft | 415 kts | 315° |
| 2026-04-30 13:16 | 41.33471 | 23.84808 | 38044 ft | 416 kts | 314° |
| 2026-04-30 13:16 | 41.37947 | 23.79920 | 38061 ft | 418 kts | 316° |
| 2026-04-30 13:17 | 41.43369 | 23.76919 | 38047 ft | 442 kts | 342° |
| 2026-04-30 13:17 | 41.46408 | 23.76169 | 38052 ft | 444 kts | 342° |
| 2026-04-30 13:18 | 41.55587 | 23.74046 | 38048 ft | 447 kts | 343° |
| 2026-04-30 13:18 | 41.64826 | 23.71982 | 38075 ft | 449 kts | 343° |
| 2026-04-30 13:19 | 41.71012 | 23.70597 | 38078 ft | 450 kts | 343° |
| 2026-04-30 13:19 | 41.77149 | 23.69221 | 38094 ft | 450 kts | 343° |
| 2026-04-30 13:20 | 41.83334 | 23.67833 | 38093 ft | 451 kts | 343° |
| 2026-04-30 13:20 | 41.89530 | 23.66439 | 38120 ft | 451 kts | 343° |
| 2026-04-30 13:21 | 41.95724 | 23.65041 | 38139 ft | 451 kts | 344° |
| 2026-04-30 13:22 | 42.04970 | 23.62952 | 38150 ft | 450 kts | 344° |
| 2026-04-30 13:22 | 42.14228 | 23.60852 | 38187 ft | 449 kts | 344° |
| 2026-04-30 13:23 | 42.23483 | 23.58747 | 38176 ft | 449 kts | 344° |
| 2026-04-30 13:24 | 42.35793 | 23.55939 | 38219 ft | 448 kts | 344° |
| 2026-04-30 13:25 | 42.48112 | 23.53117 | 38234 ft | 449 kts | 344° |
| 2026-04-30 13:26 | 42.63530 | 23.49568 | 38246 ft | 450 kts | 344° |
| 2026-04-30 13:28 | 42.78948 | 23.46002 | 38241 ft | 451 kts | 344° |
| 2026-04-30 13:28 | 42.88248 | 23.43843 | 38250 ft | 452 kts | 344° |
| 2026-04-30 13:29 | 43.00635 | 23.40956 | 38264 ft | 451 kts | 345° |
| 2026-04-30 13:31 | 43.16046 | 23.37347 | 38276 ft | 450 kts | 345° |
| 2026-04-30 13:32 | 43.31459 | 23.33720 | 38289 ft | 449 kts | 345° |
| 2026-04-30 13:33 | 43.43794 | 23.30806 | 38296 ft | 449 kts | 345° |
| 2026-04-30 13:34 | 43.52971 | 23.28385 | 38302 ft | 443 kts | 338° |
| 2026-04-30 13:35 | 43.64897 | 23.23955 | 38297 ft | 445 kts | 340° |
| 2026-04-30 13:36 | 43.76895 | 23.19589 | 38305 ft | 446 kts | 340° |
| 2026-04-30 13:36 | 43.85911 | 23.16307 | 38298 ft | 447 kts | 340° |
| 2026-04-30 13:37 | 43.94931 | 23.13013 | 38310 ft | 447 kts | 340° |
| 2026-04-30 13:38 | 44.03964 | 23.09704 | 38292 ft | 448 kts | 340° |
| 2026-04-30 13:39 | 44.16000 | 23.05278 | 38302 ft | 449 kts | 340° |
| 2026-04-30 13:40 | 44.25107 | 23.01917 | 38301 ft | 450 kts | 340° |
| 2026-04-30 13:40 | 44.31115 | 22.99694 | 38302 ft | 450 kts | 340° |
| 2026-04-30 13:41 | 44.37178 | 22.97445 | 38304 ft | 450 kts | 340° |
| 2026-04-30 13:41 | 44.43233 | 22.95196 | 38305 ft | 450 kts | 340° |
| 2026-04-30 13:42 | 44.49297 | 22.92937 | 38301 ft | 450 kts | 340° |
| 2026-04-30 13:42 | 44.58384 | 22.89544 | 38296 ft | 450 kts | 341° |
| 2026-04-30 13:43 | 44.64448 | 22.87273 | 38294 ft | 450 kts | 341° |
| 2026-04-30 13:43 | 44.70468 | 22.85014 | 38289 ft | 450 kts | 341° |
| 2026-04-30 13:44 | 44.76521 | 22.82738 | 38288 ft | 451 kts | 341° |
| 2026-04-30 13:44 | 44.81600 | 22.80824 | 38291 ft | 451 kts | 341° |
| 2026-04-30 13:45 | 44.91686 | 22.77013 | 38281 ft | 451 kts | 341° |
| 2026-04-30 13:46 | 44.97758 | 22.74712 | 38283 ft | 451 kts | 341° |
| 2026-04-30 13:46 | 45.02799 | 22.72798 | 38278 ft | 452 kts | 341° |
| 2026-04-30 13:47 | 45.08882 | 22.70484 | 38275 ft | 452 kts | 341° |
| 2026-04-30 13:47 | 45.14951 | 22.68170 | 38266 ft | 451 kts | 341° |
| 2026-04-30 13:48 | 45.21007 | 22.65855 | 38269 ft | 451 kts | 342° |
| 2026-04-30 13:48 | 45.27063 | 22.63536 | 38264 ft | 451 kts | 342° |
| 2026-04-30 13:49 | 45.33120 | 22.61211 | 38263 ft | 450 kts | 342° |
| 2026-04-30 13:49 | 45.39169 | 22.58884 | 38254 ft | 450 kts | 342° |
| 2026-04-30 13:50 | 45.45173 | 22.56569 | 38263 ft | 450 kts | 342° |
| 2026-04-30 13:50 | 45.54243 | 22.53063 | 38251 ft | 449 kts | 342° |
| 2026-04-30 13:51 | 45.60278 | 22.50723 | 38249 ft | 449 kts | 342° |
| 2026-04-30 13:51 | 45.66306 | 22.48381 | 38253 ft | 449 kts | 342° |
| 2026-04-30 13:52 | 45.72332 | 22.46035 | 38257 ft | 449 kts | 342° |
| 2026-04-30 13:52 | 45.78361 | 22.43680 | 38256 ft | 448 kts | 342° |
| 2026-04-30 13:53 | 45.84388 | 22.41323 | 38263 ft | 448 kts | 342° |
| 2026-04-30 13:53 | 45.90365 | 22.38980 | 38262 ft | 448 kts | 343° |
| 2026-04-30 13:54 | 45.96395 | 22.36611 | 38264 ft | 448 kts | 343° |
| 2026-04-30 13:54 | 46.02417 | 22.34239 | 38259 ft | 448 kts | 343° |
| 2026-04-30 13:55 | 46.08428 | 22.31867 | 38266 ft | 448 kts | 343° |
| 2026-04-30 13:55 | 46.14433 | 22.29491 | 38263 ft | 447 kts | 343° |
| 2026-04-30 13:56 | 46.20446 | 22.27107 | 38256 ft | 447 kts | 343° |
| 2026-04-30 13:56 | 46.26444 | 22.24724 | 38260 ft | 447 kts | 343° |
| 2026-04-30 13:57 | 46.32445 | 22.22333 | 38260 ft | 447 kts | 343° |
| 2026-04-30 13:57 | 46.38410 | 22.19952 | 38259 ft | 447 kts | 343° |
| 2026-04-30 13:58 | 46.47416 | 22.16347 | 38260 ft | 447 kts | 343° |
| 2026-04-30 13:59 | 46.53414 | 22.13939 | 38261 ft | 447 kts | 343° |
| 2026-04-30 13:59 | 46.59414 | 22.11524 | 38263 ft | 447 kts | 343° |
| 2026-04-30 14:00 | 46.65406 | 22.09107 | 38266 ft | 447 kts | 343° |
| 2026-04-30 14:00 | 46.74347 | 22.05490 | 38273 ft | 446 kts | 343° |
| 2026-04-30 14:01 | 46.80329 | 22.03062 | 38281 ft | 446 kts | 343° |
| 2026-04-30 14:01 | 46.86309 | 22.00630 | 38285 ft | 446 kts | 343° |
| 2026-04-30 14:02 | 46.92286 | 21.98195 | 38291 ft | 445 kts | 343° |
| 2026-04-30 14:02 | 46.98251 | 21.95759 | 38297 ft | 445 kts | 343° |
| 2026-04-30 14:03 | 47.04223 | 21.93315 | 38295 ft | 445 kts | 343° |
| 2026-04-30 14:03 | 47.10193 | 21.90865 | 38294 ft | 446 kts | 344° |
| 2026-04-30 14:04 | 47.16131 | 21.88422 | 38290 ft | 446 kts | 344° |
| 2026-04-30 14:04 | 47.22145 | 21.85942 | 38286 ft | 446 kts | 344° |
| 2026-04-30 14:05 | 47.28094 | 21.83484 | 38290 ft | 447 kts | 344° |
| 2026-04-30 14:05 | 47.34086 | 21.81002 | 38292 ft | 447 kts | 344° |
| 2026-04-30 14:06 | 47.43081 | 21.77265 | 38291 ft | 447 kts | 344° |
| 2026-04-30 14:07 | 47.52037 | 21.73530 | 38292 ft | 448 kts | 344° |
| 2026-04-30 14:08 | 47.61025 | 21.69769 | 38296 ft | 447 kts | 344° |
| 2026-04-30 14:08 | 47.70023 | 21.65991 | 38300 ft | 447 kts | 345° |
| 2026-04-30 14:09 | 47.76012 | 21.63469 | 38316 ft | 447 kts | 345° |
| 2026-04-30 14:10 | 47.84990 | 21.59921 | 38319 ft | 446 kts | 346° |
| 2026-04-30 14:10 | 47.91000 | 21.57569 | 38320 ft | 446 kts | 346° |
| 2026-04-30 14:11 | 47.97009 | 21.55211 | 38319 ft | 446 kts | 346° |
| 2026-04-30 14:11 | 48.03006 | 21.52852 | 38321 ft | 445 kts | 346° |
| 2026-04-30 14:12 | 48.08987 | 21.50492 | 38319 ft | 444 kts | 346° |
| 2026-04-30 14:12 | 48.14974 | 21.48125 | 38325 ft | 444 kts | 346° |
| 2026-04-30 14:13 | 48.20910 | 21.45772 | 38328 ft | 443 kts | 346° |
| 2026-04-30 14:13 | 48.26771 | 21.43444 | 38335 ft | 443 kts | 346° |
| 2026-04-30 14:14 | 48.32726 | 21.41073 | 38340 ft | 442 kts | 346° |
| 2026-04-30 14:14 | 48.38389 | 21.38812 | 38344 ft | 442 kts | 346° |
| 2026-04-30 14:15 | 48.44341 | 21.36431 | 38342 ft | 442 kts | 346° |
| 2026-04-30 14:15 | 48.50282 | 21.34048 | 38345 ft | 442 kts | 346° |
| 2026-04-30 14:16 | 48.56224 | 21.31659 | 38343 ft | 442 kts | 346° |
| 2026-04-30 14:16 | 48.62160 | 21.29267 | 38345 ft | 442 kts | 346° |
| 2026-04-30 14:17 | 48.68100 | 21.26867 | 38350 ft | 441 kts | 346° |
| 2026-04-30 14:17 | 48.73994 | 21.24480 | 38346 ft | 441 kts | 346° |
| 2026-04-30 14:18 | 48.79922 | 21.22074 | 38345 ft | 441 kts | 346° |
| 2026-04-30 14:18 | 48.88819 | 21.18450 | 38349 ft | 441 kts | 346° |
| 2026-04-30 14:19 | 48.97705 | 21.14818 | 38346 ft | 440 kts | 346° |
| 2026-04-30 14:20 | 49.03626 | 21.12392 | 38350 ft | 440 kts | 346° |
| 2026-04-30 14:20 | 49.12462 | 21.08827 | 38347 ft | 439 kts | 348° |
| 2026-04-30 14:21 | 49.18350 | 21.06677 | 38348 ft | 433 kts | 348° |
| 2026-04-30 14:22 | 49.27146 | 21.03423 | 38350 ft | 433 kts | 348° |
| 2026-04-30 14:22 | 49.32819 | 21.00373 | 38344 ft | 437 kts | 330° |
| 2026-04-30 14:22 | 49.35197 | 20.97440 | 38361 ft | 442 kts | 317° |
| 2026-04-30 14:23 | 49.39338 | 20.90470 | 37745 ft | 440 kts | 314° |
| 2026-04-30 14:23 | 49.43444 | 20.83110 | 35590 ft | 457 kts | 314° |
| 2026-04-30 14:24 | 49.47470 | 20.75750 | 34648 ft | 447 kts | 314° |
| 2026-04-30 14:24 | 49.49469 | 20.72077 | 33863 ft | 448 kts | 314° |
| 2026-04-30 14:25 | 49.53476 | 20.64698 | 32236 ft | 450 kts | 314° |
| 2026-04-30 14:25 | 49.57460 | 20.57341 | 30637 ft | 451 kts | 314° |
| 2026-04-30 14:26 | 49.61517 | 20.49825 | 28665 ft | 454 kts | 314° |
| 2026-04-30 14:26 | 49.63540 | 20.46068 | 27634 ft | 457 kts | 314° |
| 2026-04-30 14:26 | 49.67714 | 20.38925 | 24740 ft | 447 kts | 326° |
| 2026-04-30 14:27 | 49.70141 | 20.36184 | 23394 ft | 442 kts | 327° |
| 2026-04-30 14:27 | 49.72549 | 20.33290 | 22092 ft | 434 kts | 326° |
| 2026-04-30 14:27 | 49.74881 | 20.30439 | 20914 ft | 425 kts | 326° |
| 2026-04-30 14:28 | 49.79355 | 20.24895 | 19386 ft | 393 kts | 326° |
| 2026-04-30 14:28 | 49.81473 | 20.22256 | 18671 ft | 396 kts | 326° |
| 2026-04-30 14:28 | 49.83632 | 20.19554 | 17903 ft | 401 kts | 326° |
| 2026-04-30 14:28 | 49.85804 | 20.16833 | 17230 ft | 401 kts | 326° |
| 2026-04-30 14:29 | 49.90107 | 20.11436 | 15909 ft | 394 kts | 325° |
| 2026-04-30 14:29 | 49.93623 | 20.07018 | 14823 ft | 387 kts | 324° |
| 2026-04-30 14:30 | 50.00472 | 19.98386 | 12614 ft | 376 kts | 324° |
| 2026-04-30 14:31 | 50.04362 | 19.93473 | 12165 ft | 337 kts | 324° |
| 2026-04-30 14:31 | 50.07787 | 19.89137 | 11760 ft | 299 kts | 325° |
| 2026-04-30 14:31 | 50.09359 | 19.87145 | 11570 ft | 283 kts | 325° |
| 2026-04-30 14:32 | 50.12240 | 19.83488 | 11238 ft | 254 kts | 326° |
| 2026-04-30 14:32 | 50.13586 | 19.81778 | 11074 ft | 256 kts | 326° |
| 2026-04-30 14:32 | 50.14987 | 19.79994 | 10898 ft | 263 kts | 325° |
| 2026-04-30 14:33 | 50.16416 | 19.78174 | 10731 ft | 267 kts | 325° |
| 2026-04-30 14:33 | 50.19288 | 19.74513 | 10366 ft | 267 kts | 325° |
| 2026-04-30 14:33 | 50.20724 | 19.72677 | 9982 ft | 266 kts | 325° |
| 2026-04-30 14:34 | 50.22153 | 19.70851 | 9638 ft | 264 kts | 324° |
| 2026-04-30 14:34 | 50.23569 | 19.69040 | 9300 ft | 262 kts | 324° |
| 2026-04-30 14:34 | 50.24978 | 19.67236 | 8968 ft | 260 kts | 324° |
| 2026-04-30 14:34 | 50.26376 | 19.65446 | 8646 ft | 259 kts | 324° |
| 2026-04-30 14:35 | 50.28685 | 19.62486 | 8120 ft | 257 kts | 323° |
| 2026-04-30 14:35 | 50.30506 | 19.60148 | 7696 ft | 255 kts | 323° |
| 2026-04-30 14:35 | 50.31871 | 19.58393 | 7372 ft | 253 kts | 323° |
| 2026-04-30 14:36 | 50.33234 | 19.56638 | 7066 ft | 254 kts | 323° |
| 2026-04-30 14:36 | 50.34158 | 19.55452 | 6842 ft | 253 kts | 323° |
| 2026-04-30 14:36 | 50.35510 | 19.53709 | 6487 ft | 251 kts | 322° |
| 2026-04-30 14:36 | 50.36837 | 19.51997 | 6227 ft | 247 kts | 323° |
| 2026-04-30 14:37 | 50.38131 | 19.50332 | 6090 ft | 234 kts | 323° |
| 2026-04-30 14:37 | 50.39348 | 19.48763 | 5977 ft | 219 kts | 323° |
| 2026-04-30 14:37 | 50.40486 | 19.47294 | 5860 ft | 204 kts | 323° |
| 2026-04-30 14:37 | 50.41549 | 19.45923 | 5738 ft | 193 kts | 322° |
| 2026-04-30 14:38 | 50.42603 | 19.44562 | 5624 ft | 201 kts | 323° |
| 2026-04-30 14:38 | 50.43700 | 19.43143 | 5442 ft | 206 kts | 322° |
| 2026-04-30 14:38 | 50.44808 | 19.41706 | 5269 ft | 206 kts | 322° |
| 2026-04-30 14:38 | 50.45914 | 19.40276 | 5156 ft | 206 kts | 322° |
| 2026-04-30 14:39 | 50.46971 | 19.38756 | 4901 ft | 208 kts | 307° |
| 2026-04-30 14:39 | 50.47440 | 19.36587 | 4506 ft | 216 kts | 276° |
| 2026-04-30 14:39 | 50.47460 | 19.34313 | 4454 ft | 196 kts | 275° |
| 2026-04-30 14:40 | 50.47503 | 19.30414 | 4387 ft | 174 kts | 275° |
| 2026-04-30 14:40 | 50.47522 | 19.28532 | 4391 ft | 175 kts | 275° |
| 2026-04-30 14:40 | 50.47542 | 19.26620 | 4385 ft | 175 kts | 275° |
| 2026-04-30 14:40 | 50.47549 | 19.24708 | 4381 ft | 176 kts | 275° |
| 2026-04-30 14:41 | 50.47561 | 19.22788 | 4348 ft | 176 kts | 274° |
| 2026-04-30 14:41 | 50.47567 | 19.20862 | 4372 ft | 176 kts | 275° |